Time;durP1;ratioP1;P1;durP2;ratioP2;P2;SDS_P1;SDS_P2;PMS_P1;PMS_P2;Temp;Humidity;BMP_temperature;BMP_pressure;BME280_temperature;BME280_humidity;BME280_pressure;Samples;Min_cycle;Max_cycle;Signal;HPM_P1;HPM_P2
2023/02/08 00:01:08;;;;;;;14.75;10.95;;;;;;;;;;5067025;28;20216;-43
2023/02/08 00:03:34;;;;;;;19.00;12.88;;;;;;;;;;5065473;28;20212;-43
2023/02/08 00:06:00;;;;;;;16.60;11.48;;;;;;;;;;5058766;28;20181;-43
2023/02/08 00:08:26;;;;;;;23.45;13.32;;;;;;;;;;5064328;28;20191;-43
2023/02/08 00:10:52;;;;;;;22.73;13.15;;;;;;;;;;5069232;28;20665;-43
2023/02/08 00:13:19;;;;;;;20.73;13.60;;;;;;;;;;5070873;28;20181;-43
2023/02/08 00:15:45;;;;;;;29.73;13.52;;;;;;;;;;5066319;28;20408;-43
2023/02/08 00:18:12;;;;;;;22.25;14.25;;;;;;;;;;5067591;28;20205;-43
2023/02/08 00:20:39;;;;;;;22.08;13.48;;;;;;;;;;5069624;28;20189;-43
2023/02/08 00:23:05;;;;;;;24.13;14.63;;;;;;;;;;5064760;28;20591;-43
2023/02/08 00:25:31;;;;;;;20.27;12.40;;;;;;;;;;5063397;28;20228;-43
2023/02/08 00:27:57;;;;;;;24.25;13.13;;;;;;;;;;5062526;28;20660;-43
2023/02/08 00:30:23;;;;;;;22.90;14.43;;;;;;;;;;5068624;28;20222;-43
2023/02/08 00:32:49;;;;;;;21.20;13.40;;;;;;;;;;5069291;28;20489;-43
2023/02/08 00:35:15;;;;;;;22.10;13.80;;;;;;;;;;5069704;28;20214;-43
2023/02/08 00:37:41;;;;;;;22.92;15.40;;;;;;;;;;5057364;28;20209;-43
2023/02/08 00:40:08;;;;;;;26.45;14.40;;;;;;;;;;5057064;28;20163;-43
2023/02/08 00:42:34;;;;;;;22.35;14.00;;;;;;;;;;5063546;28;20171;-43
2023/02/08 00:45:00;;;;;;;47.33;13.00;;;;;;;;;;5067022;28;20165;-42
2023/02/08 00:47:26;;;;;;;22.63;12.55;;;;;;;;;;5064654;28;20199;-45
2023/02/08 00:49:52;;;;;;;19.97;12.37;;;;;;;;;;5069221;28;20179;-47
2023/02/08 00:52:19;;;;;;;29.00;12.93;;;;;;;;;;5070001;28;20441;-46
2023/02/08 00:54:45;;;;;;;23.10;14.18;;;;;;;;;;5063863;28;20428;-46
2023/02/08 00:57:11;;;;;;;21.88;15.48;;;;;;;;;;5065242;28;20245;-45
2023/02/08 00:59:37;;;;;;;19.60;12.60;;;;;;;;;;5064992;28;20178;-46
2023/02/08 01:02:04;;;;;;;21.60;14.20;;;;;;;;;;5064959;28;20170;-46
2023/02/08 01:04:30;;;;;;;20.50;12.15;;;;;;;;;;5064415;28;20173;-46
2023/02/08 01:06:56;;;;;;;22.85;13.45;;;;;;;;;;5067808;28;20702;-44
2023/02/08 01:09:22;;;;;;;18.40;11.97;;;;;;;;;;5069520;28;20265;-46
2023/02/08 01:11:48;;;;;;;20.60;13.20;;;;;;;;;;5062056;28;20445;-47
2023/02/08 01:14:14;;;;;;;20.87;12.80;;;;;;;;;;5068655;28;20264;-47
2023/02/08 01:16:40;;;;;;;20.60;12.13;;;;;;;;;;5064289;28;20517;-44
2023/02/08 01:19:06;;;;;;;22.40;13.67;;;;;;;;;;5061188;28;20406;-44
2023/02/08 01:21:33;;;;;;;20.33;13.15;;;;;;;;;;5063413;28;20401;-45
2023/02/08 01:23:59;;;;;;;16.70;11.30;;;;;;;;;;5066132;28;20221;-45
2023/02/08 01:26:25;;;;;;;22.23;12.82;;;;;;;;;;5062456;28;20596;-44
2023/02/08 01:28:52;;;;;;;22.73;13.45;;;;;;;;;;5067747;28;20183;-46
2023/02/08 01:31:23;;;;;;;20.83;14.25;;;;;;;;;;5061151;28;20646;-44
2023/02/08 01:33:49;;;;;;;25.20;15.68;;;;;;;;;;5069073;28;20543;-45
2023/02/08 01:36:15;;;;;;;29.38;14.68;;;;;;;;;;5064246;28;20248;-45
2023/02/08 01:38:41;;;;;;;27.60;15.30;;;;;;;;;;5064082;28;20190;-45
2023/02/08 01:41:08;;;;;;;23.67;13.18;;;;;;;;;;5064384;28;20174;-44
2023/02/08 01:43:35;;;;;;;17.05;12.30;;;;;;;;;;5062767;28;20175;-44
2023/02/08 01:46:01;;;;;;;20.98;14.50;;;;;;;;;;5065726;28;20194;-43
2023/02/08 01:48:33;;;;;;;20.50;12.87;;;;;;;;;;5068907;28;20677;-42
2023/02/08 01:51:05;;;;;;;22.00;13.10;;;;;;;;;;5066325;28;20428;-43
2023/02/08 01:53:33;;;;;;;22.52;13.75;;;;;;;;;;5062016;28;20178;-43
2023/02/08 01:56:01;;;;;;;15.93;11.35;;;;;;;;;;5065813;28;20181;-43
2023/02/08 01:58:28;;;;;;;22.98;12.77;;;;;;;;;;5063871;28;20299;-43
2023/02/08 02:00:55;;;;;;;24.63;12.80;;;;;;;;;;5063736;28;20659;-43
2023/02/08 02:03:23;;;;;;;22.63;13.85;;;;;;;;;;5062818;28;20179;-44
2023/02/08 02:05:52;;;;;;;21.20;13.05;;;;;;;;;;5066249;28;20175;-44
2023/02/08 02:08:18;;;;;;;17.05;11.75;;;;;;;;;;5067936;28;20208;-46
2023/02/08 02:10:43;;;;;;;18.60;11.93;;;;;;;;;;5061665;28;20175;-45
2023/02/08 02:13:12;;;;;;;18.95;11.63;;;;;;;;;;5067619;28;20175;-44
2023/02/08 02:15:38;;;;;;;21.92;13.10;;;;;;;;;;5062845;28;20261;-44
2023/02/08 02:18:05;;;;;;;19.90;12.43;;;;;;;;;;5063447;28;20213;-46
2023/02/08 02:20:41;;;;;;;25.42;13.55;;;;;;;;;;5063349;28;20193;-47
2023/02/08 02:23:12;;;;;;;25.02;12.60;;;;;;;;;;5065126;28;20166;-46
2023/02/08 02:25:50;;;;;;;17.50;12.85;;;;;;;;;;5063002;28;20646;-45
2023/02/08 02:28:34;;;;;;;18.08;13.95;;;;;;;;;;5072069;28;20288;-46
2023/02/08 02:31:18;;;;;;;21.05;13.93;;;;;;;;;;5071843;28;20204;-44
2023/02/08 02:34:09;;;;;;;21.55;12.88;;;;;;;;;;5069382;28;20182;-46
2023/02/08 02:36:54;;;;;;;28.10;13.00;;;;;;;;;;5066969;28;20194;-44
2023/02/08 02:39:23;;;;;;;29.23;12.75;;;;;;;;;;5067825;28;20232;-44
2023/02/08 02:44:56;;;;;;;20.33;12.48;;;;;;;;;;5062885;28;20185;-44
2023/02/08 02:47:22;;;;;;;32.55;13.15;;;;;;;;;;5055226;28;20194;-44
2023/02/08 02:49:50;;;;;;;27.10;12.40;;;;;;;;;;5063041;28;20247;-43
2023/02/08 02:52:39;;;;;;;20.35;13.50;;;;;;;;;;5063997;28;20409;-44
2023/02/08 02:55:07;;;;;;;20.05;13.25;;;;;;;;;;5062564;28;20177;-46
2023/02/08 02:57:35;;;;;;;20.50;13.60;;;;;;;;;;5062942;28;20210;-44
2023/02/08 03:00:07;;;;;;;21.55;13.82;;;;;;;;;;5071473;28;20174;-45
2023/02/08 03:02:33;;;;;;;20.75;13.38;;;;;;;;;;5071688;28;20166;-44
2023/02/08 03:04:59;;;;;;;23.23;13.00;;;;;;;;;;5071194;28;20178;-45
2023/02/08 03:07:43;;;;;;;22.97;14.63;;;;;;;;;;5071532;28;20424;-45
2023/02/08 03:10:09;;;;;;;23.73;13.77;;;;;;;;;;5071508;28;20403;-43
2023/02/08 03:12:47;;;;;;;26.47;14.37;;;;;;;;;;5071656;28;20179;-45
2023/02/08 03:15:16;;;;;;;22.13;13.05;;;;;;;;;;5070820;28;20437;-45
2023/02/08 03:17:57;;;;;;;28.00;13.25;;;;;;;;;;5072620;28;20228;-44
2023/02/08 03:20:31;;;;;;;20.50;13.68;;;;;;;;;;5075449;28;20238;-40
2023/02/08 03:23:17;;;;;;;31.15;14.40;;;;;;;;;;5075653;28;20188;-41
2023/02/08 03:25:51;;;;;;;27.77;16.55;;;;;;;;;;5074724;28;20539;-41
2023/02/08 03:28:27;;;;;;;22.25;13.90;;;;;;;;;;5075397;28;20646;-43
2023/02/08 03:31:02;;;;;;;21.65;13.30;;;;;;;;;;5075143;28;20170;-42
2023/02/08 03:33:32;;;;;;;23.60;12.82;;;;;;;;;;5075690;28;20504;-43
2023/02/08 03:36:04;;;;;;;26.02;13.75;;;;;;;;;;5074554;28;20170;-43
2023/02/08 03:38:35;;;;;;;22.23;14.30;;;;;;;;;;5075001;28;20193;-43
2023/02/08 03:41:04;;;;;;;21.88;14.13;;;;;;;;;;5074941;28;20178;-46
2023/02/08 03:43:36;;;;;;;23.13;14.27;;;;;;;;;;5075095;28;20239;-45
2023/02/08 03:46:11;;;;;;;25.75;14.13;;;;;;;;;;5074544;28;20181;-44
2023/02/08 03:48:38;;;;;;;18.13;10.48;;;;;;;;;;5074728;28;20281;-43
2023/02/08 03:51:05;;;;;;;20.83;13.80;;;;;;;;;;5074889;28;20269;-43
2023/02/08 03:53:37;;;;;;;19.17;13.43;;;;;;;;;;5066928;28;20533;-43
2023/02/08 03:56:04;;;;;;;22.65;12.43;;;;;;;;;;5054482;28;20167;-43
2023/02/08 03:58:37;;;;;;;18.55;13.35;;;;;;;;;;5054591;28;20198;-43
2023/02/08 04:01:07;;;;;;;21.08;12.15;;;;;;;;;;5054546;28;20199;-43
2023/02/08 04:03:34;;;;;;;17.15;12.55;;;;;;;;;;5054577;28;20245;-42
2023/02/08 04:06:00;;;;;;;21.48;14.30;;;;;;;;;;5054122;28;20178;-42
2023/02/08 04:08:26;;;;;;;19.83;11.73;;;;;;;;;;5054500;28;20271;-43
2023/02/08 04:10:52;;;;;;;23.90;12.77;;;;;;;;;;5054506;28;20198;-42
2023/02/08 04:13:18;;;;;;;18.53;12.93;;;;;;;;;;5054501;28;20393;-43
2023/02/08 04:15:44;;;;;;;27.97;12.93;;;;;;;;;;5053801;28;20913;-43
2023/02/08 04:18:10;;;;;;;17.77;12.63;;;;;;;;;;5054257;28;20971;-43
2023/02/08 04:20:37;;;;;;;25.20;11.90;;;;;;;;;;5054162;28;20888;-43
2023/02/08 04:23:03;;;;;;;21.33;14.13;;;;;;;;;;5054332;28;20417;-43
2023/02/08 04:25:29;;;;;;;17.25;13.07;;;;;;;;;;5053653;28;20174;-43
2023/02/08 04:27:55;;;;;;;18.37;12.17;;;;;;;;;;5053974;28;20278;-42
2023/02/08 04:30:21;;;;;;;16.13;11.70;;;;;;;;;;5053934;28;20405;-42
2023/02/08 04:32:47;;;;;;;14.68;11.43;;;;;;;;;;5054065;28;20478;-43
2023/02/08 04:35:13;;;;;;;19.97;11.77;;;;;;;;;;5053504;28;20198;-43
2023/02/08 04:37:39;;;;;;;22.87;13.97;;;;;;;;;;5053866;28;20849;-43
2023/02/08 04:40:05;;;;;;;26.83;13.07;;;;;;;;;;5053914;28;20472;-42
2023/02/08 04:42:31;;;;;;;25.60;15.30;;;;;;;;;;5053979;28;20405;-43
2023/02/08 04:44:56;;;;;;;31.83;18.17;;;;;;;;;;5053205;28;20163;-43
2023/02/08 04:47:22;;;;;;;30.73;15.13;;;;;;;;;;5053731;28;20429;-43
2023/02/08 04:49:48;;;;;;;27.57;14.77;;;;;;;;;;5053650;28;20951;-43
2023/02/08 04:52:16;;;;;;;26.73;14.07;;;;;;;;;;5053869;28;20405;-43
2023/02/08 04:54:42;;;;;;;19.08;13.48;;;;;;;;;;5052968;28;20449;-43
2023/02/08 04:57:10;;;;;;;34.07;13.13;;;;;;;;;;5053522;28;20245;-43
2023/02/08 04:59:36;;;;;;;13.98;10.38;;;;;;;;;;5053401;28;20433;-43
2023/02/08 05:02:02;;;;;;;17.20;12.60;;;;;;;;;;5053756;28;20199;-43
2023/02/08 05:04:29;;;;;;;18.37;12.33;;;;;;;;;;5052901;28;20405;-43
2023/02/08 05:06:55;;;;;;;25.50;11.68;;;;;;;;;;5053570;28;20760;-43
2023/02/08 05:09:22;;;;;;;20.20;12.60;;;;;;;;;;5053322;28;20258;-43
2023/02/08 05:11:48;;;;;;;24.80;12.68;;;;;;;;;;5053496;28;20482;-43
2023/02/08 05:14:14;;;;;;;16.58;11.77;;;;;;;;;;5052581;28;20254;-43
2023/02/08 05:16:40;;;;;;;20.70;12.00;;;;;;;;;;5052959;28;20257;-43
2023/02/08 05:19:06;;;;;;;15.60;11.33;;;;;;;;;;5053113;28;20401;-43
2023/02/08 05:21:32;;;;;;;18.47;11.20;;;;;;;;;;5053253;28;20397;-43
2023/02/08 05:23:58;;;;;;;20.33;11.93;;;;;;;;;;5052559;28;20404;-43
2023/02/08 05:26:24;;;;;;;25.70;12.13;;;;;;;;;;5053134;28;20458;-43
2023/02/08 05:28:50;;;;;;;20.57;12.20;;;;;;;;;;5052727;28;20413;-43
2023/02/08 05:31:21;;;;;;;18.33;12.03;;;;;;;;;;5053062;28;20402;-43
2023/02/08 05:33:48;;;;;;;22.98;12.20;;;;;;;;;;5052506;28;20433;-43
2023/02/08 05:36:14;;;;;;;18.73;12.85;;;;;;;;;;5053031;28;20163;-43
2023/02/08 05:38:40;;;;;;;24.20;11.50;;;;;;;;;;5052691;28;20548;-43
2023/02/08 05:41:06;;;;;;;16.87;11.27;;;;;;;;;;5058860;28;20515;-43
2023/02/08 05:43:32;;;;;;;16.47;12.03;;;;;;;;;;5064098;28;20408;-43
2023/02/08 05:45:58;;;;;;;18.55;12.50;;;;;;;;;;5063246;28;20427;-43
2023/02/08 05:48:24;;;;;;;19.20;11.20;;;;;;;;;;5063120;28;20194;-43
2023/02/08 05:50:50;;;;;;;22.13;11.60;;;;;;;;;;5065408;28;20909;-43
2023/02/08 05:53:16;;;;;;;17.40;11.90;;;;;;;;;;5069012;28;20434;-43
2023/02/08 05:55:47;;;;;;;21.20;11.50;;;;;;;;;;5058888;28;20401;-45
2023/02/08 05:58:13;;;;;;;19.80;12.80;;;;;;;;;;5067428;28;20460;-43
2023/02/08 06:00:39;;;;;;;17.83;11.32;;;;;;;;;;5061654;28;20473;-46
2023/02/08 06:03:05;;;;;;;17.92;11.75;;;;;;;;;;5063327;28;20174;-45
2023/02/08 06:05:31;;;;;;;19.70;13.68;;;;;;;;;;5062715;28;20175;-45
2023/02/08 06:07:57;;;;;;;27.30;13.53;;;;;;;;;;5063382;28;20201;-46
2023/02/08 06:10:23;;;;;;;20.47;13.10;;;;;;;;;;5062806;28;20439;-45
2023/02/08 06:12:49;;;;;;;22.60;13.50;;;;;;;;;;5066733;28;20913;-44
2023/02/08 06:15:15;;;;;;;20.13;12.53;;;;;;;;;;5067382;28;20197;-43
2023/02/08 06:17:41;;;;;;;20.83;12.00;;;;;;;;;;5062779;28;20460;-43
2023/02/08 06:20:07;;;;;;;21.80;13.37;;;;;;;;;;5065808;28;20196;-43
2023/02/08 06:22:34;;;;;;;19.67;13.20;;;;;;;;;;5063297;28;20456;-43
2023/02/08 06:25:00;;;;;;;16.67;11.57;;;;;;;;;;5061062;28;20166;-43
2023/02/08 06:27:26;;;;;;;18.98;11.07;;;;;;;;;;5060712;28;20195;-43
2023/02/08 06:29:52;;;;;;;17.58;11.80;;;;;;;;;;5065987;28;20196;-42
2023/02/08 06:32:18;;;;;;;16.15;11.50;;;;;;;;;;5067654;28;20227;-40
2023/02/08 06:34:45;;;;;;;21.07;12.00;;;;;;;;;;5062767;28;20185;-43
2023/02/08 06:37:11;;;;;;;19.38;11.43;;;;;;;;;;5061568;28;21040;-41
2023/02/08 06:39:37;;;;;;;17.40;12.53;;;;;;;;;;5060457;28;20174;-40
2023/02/08 06:42:03;;;;;;;18.27;12.27;;;;;;;;;;5058212;28;20409;-41
2023/02/08 06:44:29;;;;;;;19.15;12.35;;;;;;;;;;5071060;28;20423;-42
2023/02/08 06:46:55;;;;;;;21.17;13.03;;;;;;;;;;5066466;28;20203;-43
2023/02/08 06:49:21;;;;;;;21.65;11.80;;;;;;;;;;5065316;28;20511;-43
2023/02/08 06:51:47;;;;;;;18.95;12.63;;;;;;;;;;5060076;28;20181;-43
2023/02/08 06:54:14;;;;;;;20.20;13.50;;;;;;;;;;5066740;28;20554;-43
2023/02/08 06:56:40;;;;;;;20.30;12.75;;;;;;;;;;5064760;28;20459;-43
2023/02/08 06:59:07;;;;;;;17.73;12.32;;;;;;;;;;5067403;28;20175;-42
2023/02/08 07:01:33;;;;;;;20.17;13.05;;;;;;;;;;5059985;28;20178;-44
2023/02/08 07:03:59;;;;;;;25.40;13.57;;;;;;;;;;5064155;28;20175;-43
2023/02/08 07:06:25;;;;;;;23.10;13.60;;;;;;;;;;5067730;28;20407;-42
2023/02/08 07:08:51;;;;;;;19.00;11.77;;;;;;;;;;5061084;28;20413;-43
2023/02/08 07:11:19;;;;;;;23.10;13.50;;;;;;;;;;5068236;28;20196;-40
2023/02/08 07:13:47;;;;;;;20.42;13.77;;;;;;;;;;5070859;28;20413;-41
2023/02/08 07:16:14;;;;;;;22.52;14.60;;;;;;;;;;5071388;28;20223;-42
2023/02/08 07:18:40;;;;;;;21.33;13.02;;;;;;;;;;5062837;28;20693;-43
2023/02/08 07:21:06;;;;;;;20.30;13.40;;;;;;;;;;5062780;28;20204;-39
2023/02/08 07:23:32;;;;;;;21.93;13.73;;;;;;;;;;5067716;28;20420;-39
2023/02/08 07:26:03;;;;;;;21.23;13.63;;;;;;;;;;5062567;28;20506;-39
2023/02/08 07:28:29;;;;;;;16.45;11.73;;;;;;;;;;5069418;28;20436;-43
2023/02/08 07:30:55;;;;;;;19.17;13.30;;;;;;;;;;5069351;28;20579;-43
2023/02/08 07:33:21;;;;;;;20.70;12.23;;;;;;;;;;5062907;28;20178;-43
2023/02/08 07:35:47;;;;;;;23.65;14.27;;;;;;;;;;5056675;28;20272;-43
2023/02/08 07:38:13;;;;;;;17.10;13.30;;;;;;;;;;5062148;28;20712;-43
2023/02/08 07:40:39;;;;;;;16.80;11.23;;;;;;;;;;5062562;28;20485;-43
2023/02/08 07:43:05;;;;;;;19.50;12.02;;;;;;;;;;5071274;28;20281;-43
2023/02/08 07:45:32;;;;;;;18.20;13.60;;;;;;;;;;5069431;28;20174;-43
2023/02/08 07:47:58;;;;;;;19.55;12.15;;;;;;;;;;5069785;28;20454;-43
2023/02/08 07:50:24;;;;;;;24.20;13.37;;;;;;;;;;5059761;28;20187;-43
2023/02/08 07:52:50;;;;;;;24.10;14.20;;;;;;;;;;5066609;28;20418;-43
2023/02/08 07:55:16;;;;;;;23.08;12.63;;;;;;;;;;5058480;28;20417;-42
2023/02/08 07:57:46;;;;;;;23.40;13.27;;;;;;;;;;5069992;28;20209;-43
2023/02/08 08:00:12;;;;;;;23.33;14.35;;;;;;;;;;5061739;28;20185;-43
2023/02/08 08:02:38;;;;;;;21.08;12.57;;;;;;;;;;5062487;28;20182;-43
2023/02/08 08:05:05;;;;;;;23.47;12.10;;;;;;;;;;5065126;28;20216;-42
2023/02/08 08:07:31;;;;;;;17.90;10.82;;;;;;;;;;5070693;28;20846;-43
2023/02/08 08:09:57;;;;;;;16.87;12.00;;;;;;;;;;5068662;28;20187;-43
2023/02/08 08:12:23;;;;;;;21.05;12.75;;;;;;;;;;5070810;28;20415;-43
2023/02/08 08:14:49;;;;;;;19.88;11.15;;;;;;;;;;5062675;28;20564;-43
2023/02/08 08:17:15;;;;;;;22.98;11.85;;;;;;;;;;5070896;28;20288;-43
2023/02/08 08:19:41;;;;;;;19.00;10.88;;;;;;;;;;5058695;28;20612;-43
2023/02/08 08:22:07;;;;;;;15.43;10.02;;;;;;;;;;5061725;28;20254;-43
2023/02/08 08:24:36;;;;;;;19.40;10.80;;;;;;;;;;5064310;28;20267;-43
2023/02/08 08:27:05;;;;;;;14.40;10.77;;;;;;;;;;5067642;28;20187;-43
2023/02/08 08:29:32;;;;;;;19.75;11.20;;;;;;;;;;5064895;28;20175;-43
2023/02/08 08:31:58;;;;;;;15.95;11.18;;;;;;;;;;5068101;28;20269;-43
2023/02/08 08:34:28;;;;;;;17.23;10.40;;;;;;;;;;5069835;28;20641;-43
2023/02/08 08:36:58;;;;;;;18.73;11.85;;;;;;;;;;5067247;28;20472;-43
2023/02/08 08:39:26;;;;;;;15.77;9.57;;;;;;;;;;5065543;28;20182;-42
2023/02/08 08:41:52;;;;;;;18.35;8.75;;;;;;;;;;5066402;28;20170;-43
2023/02/08 08:44:18;;;;;;;19.70;10.93;;;;;;;;;;5064561;28;20177;-54
2023/02/08 08:46:44;;;;;;;15.47;9.33;;;;;;;;;;5065332;28;20169;-43
2023/02/08 08:49:10;;;;;;;14.93;9.50;;;;;;;;;;5065990;28;20412;-43
2023/02/08 08:51:36;;;;;;;14.90;9.30;;;;;;;;;;5070502;28;20183;-43
2023/02/08 08:54:03;;;;;;;12.50;8.70;;;;;;;;;;5067505;28;20470;-43
2023/02/08 08:56:29;;;;;;;13.60;9.13;;;;;;;;;;5065402;28;20831;-43
2023/02/08 08:58:55;;;;;;;17.63;8.23;;;;;;;;;;5073394;28;20163;-43
2023/02/08 09:01:21;;;;;;;15.07;9.50;;;;;;;;;;5072437;28;20171;-43
2023/02/08 09:03:47;;;;;;;13.17;9.37;;;;;;;;;;5069930;28;20467;-43
2023/02/08 09:06:13;;;;;;;14.30;9.70;;;;;;;;;;5073316;28;20986;-43
2023/02/08 09:08:38;;;;;;;16.17;9.20;;;;;;;;;;5073242;28;20580;-43
2023/02/08 09:11:05;;;;;;;17.30;8.57;;;;;;;;;;5073291;28;20405;-43
2023/02/08 09:13:31;;;;;;;12.83;8.83;;;;;;;;;;5072988;28;20400;-43
2023/02/08 09:15:57;;;;;;;14.80;8.90;;;;;;;;;;5070805;28;20467;-43
2023/02/08 09:18:23;;;;;;;14.83;8.63;;;;;;;;;;5072923;28;20494;-43
2023/02/08 09:20:49;;;;;;;13.00;8.13;;;;;;;;;;5072572;28;20894;-43
2023/02/08 09:23:15;;;;;;;15.40;7.90;;;;;;;;;;5069558;28;20868;-43
2023/02/08 09:25:41;;;;;;;16.23;8.80;;;;;;;;;;5071363;28;20955;-43
2023/02/08 09:28:07;;;;;;;13.67;9.17;;;;;;;;;;5065707;28;21015;-43
2023/02/08 09:30:33;;;;;;;14.70;9.20;;;;;;;;;;5071800;28;20483;-47
2023/02/08 09:32:59;;;;;;;19.37;10.87;;;;;;;;;;5069935;28;20409;-45
2023/02/08 09:35:25;;;;;;;16.53;10.20;;;;;;;;;;5069485;28;20919;-43
2023/02/08 09:37:56;;;;;;;20.57;12.70;;;;;;;;;;5070488;28;20466;-41
2023/02/08 09:40:24;;;;;;;21.83;11.97;;;;;;;;;;5070484;28;20420;-42
2023/02/08 09:42:54;;;;;;;16.50;10.97;;;;;;;;;;5070680;28;20396;-46
2023/02/08 09:45:50;;;;;;;12.47;9.07;;;;;;;;;;5071805;28;20404;-47
2023/02/08 09:48:19;;;;;;;12.23;8.43;;;;;;;;;;5055580;28;20468;-45
2023/02/08 09:50:48;;;;;;;20.20;8.70;;;;;;;;;;5072533;28;20372;-45
2023/02/08 09:53:19;;;;;;;12.27;8.80;;;;;;;;;;5072434;28;20411;-48
2023/02/08 09:55:50;;;;;;;13.43;9.23;;;;;;;;;;5060491;28;20409;-46
2023/02/08 09:58:23;;;;;;;13.37;8.90;;;;;;;;;;5068608;28;20876;-47
2023/02/08 10:00:50;;;;;;;11.30;9.00;;;;;;;;;;5072160;28;20483;-45
2023/02/08 10:03:29;;;;;;;12.87;8.60;;;;;;;;;;5072108;28;20386;-47
2023/02/08 10:05:55;;;;;;;15.97;9.00;;;;;;;;;;5071637;28;20411;-47
2023/02/08 10:08:21;;;;;;;12.97;7.50;;;;;;;;;;5072193;28;20479;-46
2023/02/08 10:10:55;;;;;;;11.87;7.97;;;;;;;;;;5072115;28;20965;-45
2023/02/08 10:13:59;;;;;;;11.07;7.97;;;;;;;;;;5072166;28;20947;-45
2023/02/08 10:16:40;;;;;;;9.20;7.37;;;;;;;;;;4990777;28;20519;-42
2023/02/08 10:19:06;;;;;;;12.47;8.80;;;;;;;;;;4990554;28;20412;-45
2023/02/08 10:21:51;;;;;;;10.23;7.40;;;;;;;;;;5037235;28;20386;-41
2023/02/08 10:24:37;;;;;;;9.67;7.17;;;;;;;;;;5071347;28;20396;-43
2023/02/08 10:27:23;;;;;;;8.17;6.17;;;;;;;;;;5071589;28;20434;-44
2023/02/08 10:29:58;;;;;;;7.63;5.80;;;;;;;;;;5071779;28;20415;-44
2023/02/08 10:32:37;;;;;;;8.30;6.47;;;;;;;;;;5071918;28;20438;-48
2023/02/08 10:35:23;;;;;;;6.77;6.07;;;;;;;;;;5071246;28;20382;-49
2023/02/08 10:37:49;;;;;;;7.30;5.90;;;;;;;;;;5070192;28;20549;-47
2023/02/08 10:40:19;;;;;;;6.80;5.93;;;;;;;;;;5071645;28;20415;-47
2023/02/08 10:42:47;;;;;;;6.07;5.00;;;;;;;;;;5071754;28;20384;-48
2023/02/08 10:45:36;;;;;;;5.93;4.60;;;;;;;;;;5071071;28;20380;-49
2023/02/08 10:48:09;;;;;;;6.40;5.07;;;;;;;;;;5071585;28;20422;-48
2023/02/08 10:50:35;;;;;;;5.30;4.50;;;;;;;;;;5071478;28;20376;-47
2023/02/08 10:53:01;;;;;;;5.80;4.33;;;;;;;;;;5071306;28;20461;-46
2023/02/08 10:55:29;;;;;;;6.80;5.70;;;;;;;;;;5062757;28;20410;-43
2023/02/08 10:57:59;;;;;;;8.30;6.10;;;;;;;;;;5051212;28;20431;-41
2023/02/08 11:00:33;;;;;;;6.53;5.43;;;;;;;;;;5051109;28;20384;-48
2023/02/08 11:03:02;;;;;;;10.03;5.87;;;;;;;;;;5051424;28;20408;-44
2023/02/08 11:05:35;;;;;;;11.67;6.40;;;;;;;;;;5050708;28;20386;-44
2023/02/08 11:08:16;;;;;;;5.93;4.10;;;;;;;;;;5051257;28;20433;-46
2023/02/08 11:10:54;;;;;;;5.70;4.50;;;;;;;;;;5051100;28;20416;-44
2023/02/08 11:13:20;;;;;;;4.07;3.67;;;;;;;;;;5051243;28;20475;-47
2023/02/08 11:15:52;;;;;;;5.77;4.03;;;;;;;;;;5050495;28;20401;-44
2023/02/08 11:18:18;;;;;;;4.80;4.30;;;;;;;;;;5051183;28;20507;-46
2023/02/08 11:20:47;;;;;;;5.70;4.50;;;;;;;;;;5051129;28;20836;-47
2023/02/08 11:23:21;;;;;;;5.17;4.57;;;;;;;;;;5051248;28;20402;-43
2023/02/08 11:25:47;;;;;;;5.37;4.77;;;;;;;;;;5050902;28;20887;-46
2023/02/08 11:28:24;;;;;;;6.70;4.97;;;;;;;;;;5049703;28;20527;-44
2023/02/08 11:31:09;;;;;;;5.27;4.80;;;;;;;;;;5071097;28;20790;-44
2023/02/08 11:33:35;;;;;;;5.97;4.93;;;;;;;;;;5071364;28;20807;-44
2023/02/08 11:36:06;;;;;;;6.73;4.53;;;;;;;;;;5070968;28;20404;-44
2023/02/08 11:38:33;;;;;;;5.93;5.30;;;;;;;;;;5072093;28;20547;-44
2023/02/08 11:41:00;;;;;;;6.13;4.90;;;;;;;;;;5075005;28;20406;-44
2023/02/08 11:43:29;;;;;;;4.67;4.10;;;;;;;;;;5074971;28;20783;-44
2023/02/08 11:45:56;;;;;;;5.23;4.70;;;;;;;;;;5074490;28;20434;-45
2023/02/08 11:48:36;;;;;;;5.50;4.63;;;;;;;;;;5057688;28;20530;-44
2023/02/08 11:51:02;;;;;;;5.03;4.43;;;;;;;;;;5054882;28;20409;-44
2023/02/08 11:53:39;;;;;;;4.67;4.20;;;;;;;;;;5054880;28;20904;-47
2023/02/08 11:56:13;;;;;;;7.37;4.27;;;;;;;;;;5054416;28;20391;-43
2023/02/08 11:58:39;;;;;;;5.63;4.30;;;;;;;;;;5052832;28;20517;-47
2023/02/08 12:01:15;;;;;;;3.73;3.33;;;;;;;;;;5054297;28;20451;-48
2023/02/08 12:03:41;;;;;;;5.57;4.10;;;;;;;;;;5053958;28;20484;-46
2023/02/08 12:06:17;;;;;;;4.43;4.03;;;;;;;;;;5054246;28;20429;-47
2023/02/08 12:08:49;;;;;;;3.80;3.40;;;;;;;;;;5054104;28;20635;-49
2023/02/08 12:11:23;;;;;;;3.80;3.50;;;;;;;;;;5054588;28;20547;-47
2023/02/08 12:14:08;;;;;;;3.70;3.10;;;;;;;;;;5054014;28;20407;-46
2023/02/08 12:16:35;;;;;;;3.87;3.30;;;;;;;;;;5054382;28;20767;-43
2023/02/08 12:19:20;;;;;;;5.07;3.40;;;;;;;;;;5054018;28;20413;-44
2023/02/08 12:21:47;;;;;;;7.03;3.70;;;;;;;;;;5054307;28;20464;-43
2023/02/08 12:24:13;;;;;;;3.77;3.40;;;;;;;;;;5072647;28;20417;-41
2023/02/08 12:26:47;;;;;;;3.90;3.33;;;;;;;;;;5074238;28;20918;-43
2023/02/08 12:29:15;;;;;;;4.53;4.07;;;;;;;;;;5074242;28;20408;-46
2023/02/08 12:31:51;;;;;;;6.17;5.27;;;;;;;;;;5074052;28;20399;-44
2023/02/08 12:34:19;;;;;;;4.93;3.70;;;;;;;;;;5073689;28;20465;-41
2023/02/08 12:42:59;;;;;;;3.83;3.13;;;;;;;;;;5073967;28;20441;-44
2023/02/08 12:45:25;;;;;;;5.10;3.00;;;;;;;;;;5073517;28;20432;-45
2023/02/08 12:47:51;;;;;;;4.80;3.30;;;;;;;;;;5074018;28;20460;-47
2023/02/08 12:50:37;;;;;;;6.30;3.17;;;;;;;;;;5073340;28;20400;-43
2023/02/08 12:53:07;;;;;;;2.80;2.50;;;;;;;;;;5073777;28;20425;-43
2023/02/08 12:55:38;;;;;;;3.30;3.00;;;;;;;;;;5064463;28;20479;-43
2023/02/08 12:58:13;;;;;;;3.87;3.00;;;;;;;;;;5053643;28;20910;-45
2023/02/08 13:00:40;;;;;;;5.33;3.10;;;;;;;;;;5053533;28;20419;-47
2023/02/08 13:03:24;;;;;;;4.93;3.17;;;;;;;;;;5053806;28;20406;-46
2023/02/08 13:05:50;;;;;;;3.13;2.83;;;;;;;;;;5051831;28;20427;-48
2023/02/08 13:08:30;;;;;;;4.13;3.83;;;;;;;;;;5050498;28;20762;-46
2023/02/08 13:10:57;;;;;;;3.70;3.37;;;;;;;;;;5051828;28;20403;-47
2023/02/08 13:13:33;;;;;;;3.00;2.70;;;;;;;;;;5050920;28;20405;-48
2023/02/08 13:16:01;;;;;;;2.90;2.70;;;;;;;;;;5050573;28;20461;-47
2023/02/08 13:18:30;;;;;;;2.60;2.40;;;;;;;;;;5051520;28;20470;-43
2023/02/08 13:20:57;;;;;;;4.53;2.83;;;;;;;;;;5051384;28;20957;-44
2023/02/08 13:23:26;;;;;;;3.20;2.60;;;;;;;;;;5051272;28;20477;-45
2023/02/08 13:25:58;;;;;;;4.93;3.00;;;;;;;;;;5050347;28;20407;-46
2023/02/08 13:28:25;;;;;;;3.93;2.27;;;;;;;;;;5050897;28;20874;-44
2023/02/08 13:30:56;;;;;;;4.13;3.17;;;;;;;;;;5070053;28;20437;-43
2023/02/08 13:33:48;;;;;;;5.40;3.23;;;;;;;;;;5069987;28;20405;-44
2023/02/08 13:36:26;;;;;;;2.97;2.77;;;;;;;;;;5068292;28;20451;-46
2023/02/08 13:38:52;;;;;;;2.90;2.63;;;;;;;;;;5071070;28;20431;-42
2023/02/08 13:41:19;;;;;;;3.27;2.97;;;;;;;;;;5071089;28;20482;-43
2023/02/08 13:43:51;;;;;;;3.03;2.53;;;;;;;;;;5069043;28;20434;-45
2023/02/08 13:46:17;;;;;;;3.13;2.90;;;;;;;;;;5071117;28;20374;-47
2023/02/08 13:48:54;;;;;;;2.63;2.43;;;;;;;;;;5070918;28;20455;-44
2023/02/08 13:51:32;;;;;;;3.17;2.80;;;;;;;;;;5071700;28;20386;-44
2023/02/08 13:53:58;;;;;;;6.83;3.40;;;;;;;;;;5071605;28;20437;-46
2023/02/08 13:56:54;;;;;;;4.27;2.60;;;;;;;;;;5055695;28;20413;-44
2023/02/08 13:59:28;;;;;;;2.60;2.40;;;;;;;;;;5043045;28;20443;-48
2023/02/08 14:02:13;;;;;;;4.67;3.10;;;;;;;;;;5051503;28;20800;-44
2023/02/08 14:04:39;;;;;;;2.70;2.50;;;;;;;;;;5051469;28;20457;-44
2023/02/08 14:07:07;;;;;;;3.23;2.97;;;;;;;;;;5051997;28;20891;-41
2023/02/08 14:10:00;;;;;;;3.00;2.80;;;;;;;;;;5052042;28;20434;-42
2023/02/08 14:12:30;;;;;;;4.03;3.00;;;;;;;;;;5052452;28;20398;-44
2023/02/08 14:15:23;;;;;;;6.43;2.50;;;;;;;;;;5051741;28;20441;-42
2023/02/08 14:17:50;;;;;;;3.63;2.53;;;;;;;;;;5050313;28;20461;-44
2023/02/08 14:20:19;;;;;;;3.07;2.77;;;;;;;;;;5050695;28;20383;-47
2023/02/08 14:22:49;;;;;;;2.83;2.63;;;;;;;;;;5051476;28;20388;-48
2023/02/08 14:25:20;;;;;;;3.70;3.17;;;;;;;;;;5052785;28;20436;-47
2023/02/08 14:27:54;;;;;;;3.00;2.80;;;;;;;;;;5054043;28;20426;-47
2023/02/08 14:30:23;;;;;;;3.40;2.50;;;;;;;;;;5051491;28;20391;-42
2023/02/08 14:33:07;;;;;;;3.33;2.93;;;;;;;;;;5052620;28;20403;-44
2023/02/08 14:35:36;;;;;;;3.00;2.67;;;;;;;;;;5051727;28;20372;-44
2023/02/08 14:38:21;;;;;;;3.40;3.10;;;;;;;;;;5054249;28;20976;-44
2023/02/08 14:40:48;;;;;;;3.00;2.77;;;;;;;;;;5051119;28;20443;-44
2023/02/08 14:43:17;;;;;;;3.23;3.00;;;;;;;;;;5050701;28;20400;-44
2023/02/08 14:45:43;;;;;;;6.17;2.80;;;;;;;;;;5051250;28;20408;-45
2023/02/08 14:48:09;;;;;;;4.47;3.33;;;;;;;;;;5051687;28;20422;-44